Time;durP1;ratioP1;P1;durP2;ratioP2;P2;SDS_P1;SDS_P2;PMS_P1;PMS_P2;Temp;Humidity;BMP_temperature;BMP_pressure;BME280_temperature;BME280_humidity;BME280_pressure;Samples;Min_cycle;Max_cycle;Signal;HPM_P1;HPM_P2
2022/06/22 00:02:02;;;;;;;14.07;12.87;;;;;;;11.84;97.28;101362.25;5002565;28;20443;-46
2022/06/22 00:04:36;;;;;;;14.73;13.23;;;;;;;11.83;97.35;101362.41;4997907;28;20433;-46
2022/06/22 00:07:07;;;;;;;11.87;10.83;;;;;;;11.82;97.45;101358.13;5002815;28;20556;-47
2022/06/22 00:09:38;;;;;;;14.67;13.20;;;;;;;11.80;97.27;101360.16;5014123;28;20433;-50
2022/06/22 00:12:08;;;;;;;14.37;12.90;;;;;;;11.78;97.22;101348.81;4999897;28;20438;-45
2022/06/22 00:14:43;;;;;;;17.37;13.20;;;;;;;11.74;97.03;101364.38;4993147;28;20946;-49
2022/06/22 00:17:18;;;;;;;14.37;11.17;;;;;;;11.73;97.26;101369.94;5002355;28;20480;-46
2022/06/22 00:19:48;;;;;;;15.97;10.20;;;;;;;11.68;97.41;101355.25;4996109;28;20441;-47
2022/06/22 00:22:19;;;;;;;14.20;12.90;;;;;;;11.66;97.46;101365.31;5010632;28;20460;-46
2022/06/22 00:24:47;;;;;;;13.67;12.30;;;;;;;11.66;97.79;101373.31;5007967;28;20422;-47
2022/06/22 00:27:27;;;;;;;15.60;14.17;;;;;;;11.64;97.79;101372.69;5001042;28;20475;-45
2022/06/22 00:30:14;;;;;;;15.93;14.33;;;;;;;11.66;98.21;101377.84;5001696;28;20513;-47
2022/06/22 00:33:13;;;;;;;22.50;14.50;;;;;;;11.72;98.59;101377.13;4995984;28;20442;-44
2022/06/22 00:35:49;;;;;;;12.97;11.87;;;;;;;11.79;98.86;101369.19;5006054;28;20442;-51
2022/06/22 00:38:20;;;;;;;13.93;12.43;;;;;;;11.88;98.58;101378.75;4998826;28;20462;-46
2022/06/22 00:40:52;;;;;;;15.00;13.57;;;;;;;11.96;98.77;101373.25;5003456;28;20434;-51
2022/06/22 00:43:21;;;;;;;14.57;13.17;;;;;;;12.03;98.71;101372.31;5007249;28;20436;-48
2022/06/22 00:45:50;;;;;;;15.17;12.70;;;;;;;12.12;98.98;101373.03;5005701;28;20465;-47
2022/06/22 00:48:26;;;;;;;17.20;13.57;;;;;;;12.21;98.93;101382.56;5005926;28;20465;-46
2022/06/22 00:51:00;;;;;;;17.97;15.47;;;;;;;12.29;99.01;101371.72;4989459;28;20452;-47
2022/06/22 00:53:34;;;;;;;16.20;12.87;;;;;;;12.38;99.18;101373.25;4986540;28;20556;-46
2022/06/22 00:56:08;;;;;;;16.87;12.67;;;;;;;12.48;99.31;101378.28;5000034;28;20481;-45
2022/06/22 00:58:44;;;;;;;16.47;14.87;;;;;;;12.56;99.13;101375.44;5003423;28;20437;-49
2022/06/22 01:01:20;;;;;;;17.97;14.60;;;;;;;12.63;99.02;101374.47;5003017;28;20425;-45
2022/06/22 01:03:56;;;;;;;16.50;14.77;;;;;;;12.71;99.32;101374.34;5000939;28;20926;-44
2022/06/22 01:06:34;;;;;;;14.70;13.23;;;;;;;12.80;99.11;101372.34;5000479;28;20480;-48
2022/06/22 01:09:08;;;;;;;17.00;14.17;;;;;;;12.87;99.20;101367.03;5002643;28;20440;-46
2022/06/22 01:14:28;;;;;;;21.73;16.43;;;;;;;13.01;99.24;101376.78;4979711;28;20517;-49
2022/06/22 01:16:58;;;;;;;18.50;16.20;;;;;;;13.08;98.93;101372.34;4994896;28;20512;-48
2022/06/22 01:19:39;;;;;;;15.90;14.37;;;;;;;13.14;99.01;101369.69;4992724;28;20422;-47
2022/06/22 01:22:24;;;;;;;15.53;14.03;;;;;;;13.21;99.06;101365.19;5004285;28;20432;-46
2022/06/22 01:25:00;;;;;;;20.13;15.90;;;;;;;13.25;99.14;101374.50;4990191;28;20452;-46
2022/06/22 01:27:34;;;;;;;15.60;14.10;;;;;;;13.30;99.26;101368.53;5011049;28;20456;-48
2022/06/22 01:30:20;;;;;;;19.73;16.60;;;;;;;13.32;99.22;101367.31;5009094;28;20428;-50
2022/06/22 01:32:49;;;;;;;18.37;15.70;;;;;;;13.38;99.65;101365.69;4998143;28;20437;-48
2022/06/22 01:35:21;;;;;;;15.93;14.37;;;;;;;13.40;99.43;101355.59;5008240;28;20434;-47
2022/06/22 01:37:49;;;;;;;19.13;16.00;;;;;;;13.42;99.51;101350.88;5006504;28;20478;-48
2022/06/22 01:40:20;;;;;;;18.07;16.07;;;;;;;13.41;99.24;101359.91;5007526;28;20440;-48
2022/06/22 01:42:56;;;;;;;23.10;16.80;;;;;;;13.45;99.28;101366.53;5009138;28;20954;-45
2022/06/22 01:45:33;;;;;;;15.90;14.13;;;;;;;13.49;99.50;101369.66;5003551;28;20443;-47
2022/06/22 01:48:07;;;;;;;18.57;16.57;;;;;;;13.51;99.57;101360.38;5000738;28;20460;-45
2022/06/22 01:50:41;;;;;;;18.93;17.03;;;;;;;13.55;99.26;101361.66;4998370;28;20434;-48
2022/06/22 01:53:14;;;;;;;17.17;15.40;;;;;;;13.58;99.60;101361.25;4999565;28;20437;-48
2022/06/22 01:55:50;;;;;;;18.10;16.13;;;;;;;13.62;99.61;101361.66;4996421;28;20438;-45
2022/06/22 01:58:42;;;;;;;19.83;14.90;;;;;;;13.66;99.34;101355.69;4994285;28;20474;-48
2022/06/22 02:01:19;;;;;;;20.97;17.07;;;;;;;13.64;99.31;101347.03;5000789;28;20441;-48
2022/06/22 02:04:03;;;;;;;18.13;16.43;;;;;;;13.67;99.52;101354.69;5007457;28;20799;-47
2022/06/22 02:09:27;;;;;;;17.33;15.70;;;;;;;13.64;99.55;101356.94;5000418;28;20434;-50
2022/06/22 02:14:42;;;;;;;22.10;17.77;;;;;;;13.66;99.17;101357.53;5006306;28;20436;-47
2022/06/22 02:17:12;;;;;;;20.10;16.50;;;;;;;13.65;99.50;101358.59;5003697;28;20505;-48
2022/06/22 02:19:42;;;;;;;22.40;17.97;;;;;;;13.64;99.58;101347.03;5005372;28;20436;-46
2022/06/22 02:22:13;;;;;;;17.73;15.87;;;;;;;13.60;99.60;101348.47;4995442;28;20526;-47
2022/06/22 02:24:46;;;;;;;22.73;18.20;;;;;;;13.53;99.61;101342.25;5004585;28;20426;-48
2022/06/22 02:27:17;;;;;;;31.03;21.60;;;;;;;13.46;99.61;101344.09;4986469;28;20465;-44
2022/06/22 02:29:49;;;;;;;21.37;19.07;;;;;;;13.40;99.64;101341.38;5007042;28;20426;-48
2022/06/22 02:32:19;;;;;;;25.20;19.63;;;;;;;13.36;99.43;101351.66;5002075;28;20433;-46
2022/06/22 02:34:50;;;;;;;20.20;17.37;;;;;;;13.30;99.31;101353.28;5002798;28;20449;-45
2022/06/22 02:37:23;;;;;;;20.43;18.33;;;;;;;13.24;99.67;101347.91;4990162;28;20472;-46
2022/06/22 02:39:55;;;;;;;23.77;20.47;;;;;;;13.21;99.31;101354.47;4998013;28;20945;-46
2022/06/22 02:45:13;;;;;;;23.87;20.97;;;;;;;13.22;99.65;101344.59;4992952;28;20444;-44
2022/06/22 02:47:46;;;;;;;26.07;18.47;;;;;;;13.25;99.42;101357.59;5009007;28;20484;-46
2022/06/22 02:50:20;;;;;;;22.97;18.40;;;;;;;13.27;99.76;101351.00;4997248;28;21151;-47
2022/06/22 02:52:50;;;;;;;25.17;20.30;;;;;;;13.27;99.47;101345.66;5009076;28;20436;-47
2022/06/22 02:55:20;;;;;;;22.70;19.43;;;;;;;13.30;99.46;101336.38;5004419;28;20429;-45
2022/06/22 02:57:56;;;;;;;28.63;22.50;;;;;;;13.29;99.37;101330.19;4999548;28;20473;-49
2022/06/22 03:00:30;;;;;;;26.90;22.30;;;;;;;13.32;98.87;101337.00;4994426;28;20456;-46
2022/06/22 03:03:01;;;;;;;29.23;21.17;;;;;;;13.37;98.63;101342.63;5007723;28;20430;-46
2022/06/22 03:05:29;;;;;;;30.03;20.70;;;;;;;13.40;98.23;101336.84;4997634;28;20440;-47
2022/06/22 03:08:00;;;;;;;27.60;21.07;;;;;;;13.38;98.47;101338.88;4994222;28;20458;-47
2022/06/22 03:10:36;;;;;;;26.83;20.20;;;;;;;13.40;97.95;101336.03;5004530;28;20437;-44
2022/06/22 03:13:04;;;;;;;27.73;20.13;;;;;;;13.41;98.32;101346.53;4996351;28;20432;-46
2022/06/22 03:15:37;;;;;;;23.70;17.20;;;;;;;13.37;98.46;101355.19;5003428;28;20932;-46
2022/06/22 03:18:07;;;;;;;26.80;17.50;;;;;;;13.37;98.63;101345.28;4972004;28;20483;-45
2022/06/22 03:20:43;;;;;;;21.03;17.77;;;;;;;13.40;98.62;101357.44;4972463;28;20942;-45
2022/06/22 03:23:18;;;;;;;23.00;18.77;;;;;;;13.39;98.75;101355.78;4973229;28;20430;-49
2022/06/22 03:25:52;;;;;;;20.43;16.97;;;;;;;13.41;98.71;101346.53;4972309;28;20451;-48
2022/06/22 03:28:25;;;;;;;21.77;16.10;;;;;;;13.44;98.92;101348.81;4972107;28;20459;-46
2022/06/22 03:30:57;;;;;;;24.30;17.07;;;;;;;13.45;99.08;101346.94;4972470;28;20470;-48
2022/06/22 03:33:30;;;;;;;18.40;15.93;;;;;;;13.56;99.10;101343.72;4999938;28;20461;-48
2022/06/22 03:36:02;;;;;;;20.93;15.43;;;;;;;13.60;99.33;101344.94;5012305;28;20997;-46
2022/06/22 03:38:37;;;;;;;14.73;13.23;;;;;;;13.52;99.88;101342.47;5015201;28;20477;-46
2022/06/22 03:41:09;;;;;;;22.33;14.83;;;;;;;13.56;100.00;101355.22;5015172;28;20439;-47
2022/06/22 03:43:43;;;;;;;25.60;15.90;;;;;;;13.60;99.88;101340.41;5015222;28;20429;-48
2022/06/22 03:46:17;;;;;;;16.70;14.70;;;;;;;13.69;100.00;101347.25;5014452;28;20464;-49
2022/06/22 03:48:49;;;;;;;20.90;14.60;;;;;;;13.80;99.76;101348.50;5014801;28;20436;-46
2022/06/22 03:51:22;;;;;;;19.73;12.40;;;;;;;13.77;99.78;101356.94;5014732;28;20447;-47
2022/06/22 03:53:53;;;;;;;16.97;14.07;;;;;;;13.86;99.72;101351.19;5014904;28;20428;-50
2022/06/22 03:56:25;;;;;;;14.37;12.30;;;;;;;13.86;99.69;101348.53;5014504;28;20464;-48
2022/06/22 03:58:54;;;;;;;21.43;13.00;;;;;;;13.91;99.74;101341.72;5014617;28;20837;-44
2022/06/22 04:01:23;;;;;;;19.80;11.63;;;;;;;13.96;99.39;101350.81;5014574;28;20444;-46
2022/06/22 04:03:54;;;;;;;14.30;11.23;;;;;;;14.15;99.50;101349.19;5015059;28;20437;-46
2022/06/22 04:06:30;;;;;;;15.23;11.77;;;;;;;14.26;99.22;101352.09;5014282;28;20883;-46
2022/06/22 04:08:58;;;;;;;13.47;10.80;;;;;;;14.36;99.26;101343.66;5014536;28;20432;-49
2022/06/22 04:11:28;;;;;;;11.33;10.23;;;;;;;14.39;98.45;101351.31;5014067;28;20448;-47
2022/06/22 04:14:03;;;;;;;11.67;10.50;;;;;;;14.47;98.32;101364.50;5014709;28;20455;-46
2022/06/22 04:16:36;;;;;;;13.80;10.73;;;;;;;14.48;97.25;101363.47;5014071;28;20488;-45
2022/06/22 04:19:10;;;;;;;13.43;10.30;;;;;;;14.67;97.96;101351.88;5014412;28;20523;-49
2022/06/22 04:21:43;;;;;;;11.27;9.93;;;;;;;14.81;97.41;101358.88;5014134;28;20441;-48
2022/06/22 04:24:14;;;;;;;16.30;9.90;;;;;;;14.98;96.35;101358.44;5014127;28;20443;-45
2022/06/22 04:26:45;;;;;;;12.03;10.53;;;;;;;15.10;95.85;101360.28;5013744;28;20461;-48
2022/06/22 04:29:18;;;;;;;11.83;10.63;;;;;;;15.16;94.99;101358.59;5014358;28;20425;-47
2022/06/22 04:31:54;;;;;;;17.97;11.87;;;;;;;15.12;93.38;101360.88;5008839;28;20431;-47
2022/06/22 04:34:32;;;;;;;13.17;10.53;;;;;;;15.22;92.71;101373.88;5005785;28;20425;-45
2022/06/22 04:37:03;;;;;;;17.93;10.20;;;;;;;15.39;94.10;101364.31;5013625;28;20468;-46
2022/06/22 04:39:34;;;;;;;11.93;10.70;;;;;;;15.47;92.41;101364.13;5013927;28;20477;-45
2022/06/22 04:42:04;;;;;;;11.70;9.53;;;;;;;15.74;93.38;101360.22;5013924;28;20437;-46
2022/06/22 04:44:35;;;;;;;17.70;9.73;;;;;;;16.15;92.19;101362.47;5013905;28;20437;-45
2022/06/22 04:47:12;;;;;;;12.80;10.10;;;;;;;16.49;88.63;101364.69;5012250;28;20972;-46
2022/06/22 04:49:46;;;;;;;11.63;9.43;;;;;;;16.64;87.98;101364.38;5013985;28;20432;-46
2022/06/22 04:52:18;;;;;;;11.30;9.93;;;;;;;16.68;85.67;101357.50;5013510;28;20966;-45
2022/06/22 04:54:56;;;;;;;15.27;9.60;;;;;;;16.68;85.06;101365.59;5013862;28;20515;-46
2022/06/22 04:57:27;;;;;;;13.73;10.83;;;;;;;16.91;84.80;101360.38;5013025;28;20465;-46
2022/06/22 04:59:56;;;;;;;13.63;10.40;;;;;;;17.40;86.25;101363.97;5013740;28;20508;-49
2022/06/22 05:02:28;;;;;;;11.43;10.27;;;;;;;17.62;82.03;101367.88;5013663;28;20432;-45
2022/06/22 05:05:02;;;;;;;15.03;10.40;;;;;;;18.05;78.85;101370.38;5013829;28;20439;-48
2022/06/22 05:07:38;;;;;;;12.40;10.90;;;;;;;18.46;77.16;101364.94;5012959;28;20552;-47
2022/06/22 05:10:14;;;;;;;18.43;11.10;;;;;;;19.56;76.57;101363.09;5013926;28;20425;-48
2022/06/22 05:12:47;;;;;;;8.73;7.93;;;;;;;19.89;74.60;101362.41;5014297;28;20437;-45
2022/06/22 05:15:23;;;;;;;13.07;9.23;;;;;;;19.96;72.92;101363.06;5014158;28;20429;-48
2022/06/22 05:17:52;;;;;;;11.73;9.40;;;;;;;20.41;68.30;101355.75;5013669;28;20460;-45
2022/06/22 05:20:28;;;;;;;12.40;10.40;;;;;;;21.27;68.06;101354.31;5013639;28;20924;-46
2022/06/22 05:23:00;;;;;;;9.97;9.10;;;;;;;22.43;64.96;101362.88;5014266;28;20444;-46
2022/06/22 05:25:30;;;;;;;11.47;10.27;;;;;;;23.00;57.36;101363.81;5014004;28;20429;-48
2022/06/22 05:28:02;;;;;;;10.73;9.63;;;;;;;24.05;59.73;101367.19;5013193;28;20471;-47
2022/06/22 05:30:35;;;;;;;10.50;9.50;;;;;;;24.56;54.71;101365.31;5013540;28;20802;-47
2022/06/22 05:33:11;;;;;;;9.13;8.37;;;;;;;23.84;56.88;101363.63;5004058;28;20441;-47
2022/06/22 05:35:44;;;;;;;10.63;9.50;;;;;;;23.14;53.61;101362.28;5010299;28;20420;-48
2022/06/22 05:38:15;;;;;;;11.23;10.10;;;;;;;22.39;55.55;101364.47;5012745;28;20938;-49
2022/06/22 05:40:45;;;;;;;13.40;9.70;;;;;;;23.41;57.77;101359.44;5013196;28;20423;-49
2022/06/22 05:43:14;;;;;;;10.00;8.80;;;;;;;23.43;55.68;101368.16;5013432;28;20444;-46
2022/06/22 05:45:46;;;;;;;11.83;9.23;;;;;;;23.37;56.49;101371.06;5012876;28;20443;-47
2022/06/22 05:48:19;;;;;;;10.73;8.77;;;;;;;22.94;53.05;101367.59;5012671;28;20822;-46
2022/06/22 05:50:52;;;;;;;9.70;8.43;;;;;;;24.26;54.83;101362.59;5012952;28;20437;-45
2022/06/22 05:53:25;;;;;;;9.60;8.80;;;;;;;23.72;54.41;101362.22;5013101;28;20448;-49
2022/06/22 05:56:13;;;;;;;12.30;8.67;;;;;;;24.17;50.97;101354.97;5012911;28;20802;-48
2022/06/22 05:58:46;;;;;;;11.23;9.23;;;;;;;24.68;51.34;101353.06;5012827;28;20476;-48
2022/06/22 06:01:23;;;;;;;9.10;8.30;;;;;;;25.57;46.33;101359.63;5013424;28;20801;-47
2022/06/22 06:04:00;;;;;;;12.70;8.43;;;;;;;26.11;49.43;101360.38;5012943;28;20459;-47
2022/06/22 06:06:32;;;;;;;16.67;9.00;;;;;;;26.96;40.69;101365.41;5012129;28;21320;-49
2022/06/22 06:09:03;;;;;;;9.07;8.27;;;;;;;26.13;44.77;101365.56;5012936;28;20915;-47
2022/06/22 06:11:34;;;;;;;8.63;7.73;;;;;;;26.18;48.40;101376.47;5012771;28;20437;-49
2022/06/22 06:14:06;;;;;;;12.80;8.00;;;;;;;25.69;45.73;101369.13;5012756;28;20436;-47
2022/06/22 06:16:45;;;;;;;10.53;9.03;;;;;;;24.94;45.49;101381.13;5012133;28;20471;-48
2022/06/22 06:19:20;;;;;;;9.53;8.63;;;;;;;23.14;48.01;101372.34;5012872;28;20495;-50
2022/06/22 06:21:53;;;;;;;9.53;8.73;;;;;;;23.07;50.48;101378.00;5012604;28;20446;-47
2022/06/22 06:24:25;;;;;;;10.67;9.57;;;;;;;22.57;51.44;101389.34;5012779;28;20435;-45
2022/06/22 06:29:48;;;;;;;15.33;9.37;;;;;;;21.21;56.35;101400.59;5013024;28;20429;-46
2022/06/22 06:32:26;;;;;;;13.90;9.40;;;;;;;20.80;57.39;101399.19;5007383;28;20472;-45
2022/06/22 06:35:01;;;;;;;19.70;10.70;;;;;;;20.23;59.61;101393.06;5004210;28;20428;-44
2022/06/22 06:37:40;;;;;;;11.77;10.40;;;;;;;19.72;61.15;101394.81;5012424;28;20474;-46
2022/06/22 06:40:12;;;;;;;10.60;9.50;;;;;;;19.45;63.28;101393.72;5012648;28;20472;-47
2022/06/22 06:42:45;;;;;;;11.93;10.60;;;;;;;19.06;64.76;101403.41;5012170;28;20447;-48
2022/06/22 06:45:16;;;;;;;12.60;10.33;;;;;;;18.69;67.27;101402.00;5012031;28;20428;-46
2022/06/22 06:47:51;;;;;;;11.57;10.23;;;;;;;18.74;68.36;101397.53;5011371;28;20469;-46
2022/06/22 06:50:27;;;;;;;12.43;9.80;;;;;;;18.87;69.50;101392.97;5011775;28;20511;-46
2022/06/22 06:53:04;;;;;;;17.67;10.93;;;;;;;19.23;69.46;101392.69;5012036;28;20477;-49
2022/06/22 06:55:39;;;;;;;10.50;9.43;;;;;;;19.39;65.61;101378.47;5011782;28;20438;-48
2022/06/22 06:58:16;;;;;;;12.40;10.87;;;;;;;20.76;67.80;101379.88;5011247;28;20464;-48
2022/06/22 07:00:46;;;;;;;11.67;10.53;;;;;;;22.52;62.50;101383.03;5011912;28;20475;-48
2022/06/22 07:03:19;;;;;;;13.33;9.70;;;;;;;23.89;57.96;101368.28;5011834;28;20440;-50
2022/06/22 07:05:49;;;;;;;10.80;9.00;;;;;;;24.67;47.88;101367.78;5011672;28;20445;-49
2022/06/22 07:08:19;;;;;;;9.33;8.30;;;;;;;25.23;48.49;101375.88;5011191;28;20475;-48
2022/06/22 07:11:14;;;;;;;15.20;7.33;;;;;;;25.68;51.10;101370.22;5013838;28;20448;-48
2022/06/22 07:13:48;;;;;;;10.43;6.30;;;;;;;26.87;50.30;101366.03;5015675;28;20909;-47
2022/06/22 07:16:20;;;;;;;8.80;7.50;;;;;;;26.95;43.33;101364.59;5015153;28;20460;-49
2022/06/22 07:18:53;;;;;;;6.93;6.30;;;;;;;26.92;40.33;101362.41;5015999;28;20428;-48
2022/06/22 07:21:29;;;;;;;8.13;7.23;;;;;;;26.98;45.48;101363.19;5015696;28;20953;-46
2022/06/22 07:24:03;;;;;;;7.43;6.40;;;;;;;27.07;40.47;101369.66;5016083;28;20432;-46
2022/06/22 07:26:42;;;;;;;11.53;7.87;;;;;;;26.92;45.04;101357.78;5015406;28;20499;-47
2022/06/22 07:29:23;;;;;;;7.07;6.37;;;;;;;26.65;45.14;101354.72;5015891;28;20930;-49
2022/06/22 07:31:58;;;;;;;11.97;7.73;;;;;;;24.93;45.35;101349.50;5010531;28;20429;-47
2022/06/22 07:34:30;;;;;;;9.30;7.80;;;;;;;23.95;48.53;101362.56;5007652;28;20435;-48
2022/06/22 07:37:04;;;;;;;7.47;6.77;;;;;;;23.88;48.67;101359.28;5015329;28;20482;-46
2022/06/22 07:39:37;;;;;;;8.83;7.93;;;;;;;24.10;48.80;101350.88;5015659;28;20429;-45
2022/06/22 07:42:05;;;;;;;8.63;7.80;;;;;;;23.98;48.72;101342.16;5015574;28;20431;-48
2022/06/22 07:44:34;;;;;;;8.80;7.07;;;;;;;25.11;48.41;101351.63;5015560;28;20948;-47
2022/06/22 07:47:11;;;;;;;6.57;5.97;;;;;;;26.16;48.33;101360.38;5014777;28;20479;-50
2022/06/22 07:49:46;;;;;;;7.23;6.47;;;;;;;27.06;43.82;101357.09;5015428;28;20428;-50
2022/06/22 07:52:18;;;;;;;8.10;6.17;;;;;;;27.23;44.15;101354.69;5015337;28;20442;-47
2022/06/22 07:54:50;;;;;;;7.40;6.70;;;;;;;25.99;42.30;101359.91;5015588;28;20793;-47
2022/06/22 07:57:24;;;;;;;10.10;7.27;;;;;;;23.82;47.80;101356.81;5014994;28;20468;-46
2022/06/22 07:59:56;;;;;;;8.27;5.80;;;;;;;23.62;48.89;101365.75;5015314;28;20567;-45
2022/06/22 08:02:28;;;;;;;6.97;6.37;;;;;;;23.42;49.78;101355.59;5015094;28;20443;-46
2022/06/22 08:05:02;;;;;;;7.80;7.10;;;;;;;23.25;52.04;101365.03;5015523;28;20500;-48
2022/06/22 08:07:45;;;;;;;6.47;5.97;;;;;;;22.60;51.80;101367.09;5014826;28;20481;-45
2022/06/22 08:10:18;;;;;;;7.00;6.40;;;;;;;22.36;51.64;101375.84;5015200;28;20925;-47
2022/06/22 08:12:56;;;;;;;7.97;6.60;;;;;;;22.07;53.37;101369.06;5015545;28;20436;-46
2022/06/22 08:15:24;;;;;;;7.57;6.80;;;;;;;21.78;55.39;101368.47;5014897;28;20428;-48
2022/06/22 08:17:54;;;;;;;9.37;7.50;;;;;;;21.42;57.71;101373.50;5014702;28;20459;-48
2022/06/22 08:20:25;;;;;;;7.83;6.53;;;;;;;21.34;57.70;101370.41;5014781;28;20473;-47
2022/06/22 08:22:57;;;;;;;8.47;7.50;;;;;;;21.17;58.58;101372.34;5013803;28;20441;-48
2022/06/22 08:25:46;;;;;;;6.90;6.40;;;;;;;20.89;59.71;101379.53;5014627;28;20484;-48
2022/06/22 08:28:16;;;;;;;8.17;6.23;;;;;;;20.27;61.74;101378.81;5014652;28;20461;-46
2022/06/22 08:30:45;;;;;;;7.23;6.63;;;;;;;19.60;64.58;101385.91;5014771;28;20437;-45
2022/06/22 08:33:15;;;;;;;7.63;6.90;;;;;;;19.32;67.23;101400.19;5004690;28;20961;-47
2022/06/22 08:35:49;;;;;;;7.53;6.73;;;;;;;19.26;68.91;101389.53;5011906;28;20433;-47
2022/06/22 08:38:24;;;;;;;6.83;6.40;;;;;;;18.98;69.59;101398.38;5014260;28;20496;-49
2022/06/22 08:40:57;;;;;;;7.30;6.80;;;;;;;19.08;70.95;101386.97;5014367;28;20478;-47
2022/06/22 08:43:34;;;;;;;9.10;7.60;;;;;;;18.96;71.78;101389.69;5014601;28;20794;-48
2022/06/22 08:46:17;;;;;;;6.40;5.90;;;;;;;18.92;73.33;101393.91;5013634;28;20779;-45
2022/06/22 08:49:04;;;;;;;7.20;6.80;;;;;;;18.90;72.50;101397.91;5014115;28;20428;-44
2022/06/22 08:51:48;;;;;;;7.37;6.20;;;;;;;18.93;72.75;101400.13;5014058;28;20451;-45
2022/06/22 08:54:36;;;;;;;6.93;6.50;;;;;;;19.08;73.36;101400.47;5013804;28;20443;-46
2022/06/22 08:57:10;;;;;;;7.20;6.47;;;;;;;19.22;72.36;101404.56;5013164;28;20478;-47
2022/06/22 09:00:06;;;;;;;7.03;6.43;;;;;;;19.08;72.50;101401.31;5013808;28;20789;-46
2022/06/22 09:02:51;;;;;;;11.00;7.10;;;;;;;19.04;72.48;101413.63;5013324;28;20440;-46
2022/06/22 09:05:52;;;;;;;8.23;7.17;;;;;;;19.03;74.35;101403.88;5013394;28;20421;-47
2022/06/22 09:08:37;;;;;;;6.07;5.70;;;;;;;19.14;74.04;101399.53;4987944;28;20469;-46
2022/06/22 09:11:20;;;;;;;7.50;6.90;;;;;;;19.37;71.77;101390.53;5013203;28;20435;-47
2022/06/22 09:14:07;;;;;;;10.20;7.60;;;;;;;19.35;71.82;101405.13;5013665;28;20459;-45
2022/06/22 09:16:46;;;;;;;9.80;7.50;;;;;;;19.72;71.83;101399.41;5012897;28;20908;-48
2022/06/22 09:19:58;;;;;;;7.20;6.60;;;;;;;19.84;70.73;101401.00;5013350;28;20440;-49
2022/06/22 09:22:39;;;;;;;7.23;6.53;;;;;;;19.83;70.20;101406.69;4968131;28;20476;-46
2022/06/22 09:25:21;;;;;;;7.30;6.57;;;;;;;19.72;71.01;101402.94;5013301;28;20420;-47
2022/06/22 09:27:59;;;;;;;7.03;6.27;;;;;;;19.56;71.32;101406.41;5012544;28;20996;-46
2022/06/22 09:30:44;;;;;;;5.83;5.43;;;;;;;19.21;73.40;101416.44;5013282;28;20417;-46
2022/06/22 09:33:33;;;;;;;6.23;5.73;;;;;;;19.06;74.65;101410.69;5003090;28;20437;-47
2022/06/22 09:36:43;;;;;;;7.60;6.90;;;;;;;19.02;75.20;101413.06;5012311;28;20544;-46
2022/06/22 09:39:41;;;;;;;5.97;5.63;;;;;;;19.15;75.86;101415.50;5001240;28;20443;-46
2022/06/22 09:42:41;;;;;;;6.20;5.73;;;;;;;19.29;74.89;101408.78;5012700;28;20973;-45
2022/06/22 09:45:28;;;;;;;8.77;5.90;;;;;;;19.15;75.83;101420.91;5013050;28;20431;-47
2022/06/22 09:48:26;;;;;;;6.17;5.67;;;;;;;18.94;77.17;101420.69;5012154;28;20478;-47
2022/06/22 09:51:15;;;;;;;6.10;5.60;;;;;;;18.84;78.21;101421.28;5012893;28;20791;-46
2022/06/22 09:56:19;;;;;;;6.60;5.90;;;;;;;18.87;77.72;101420.81;5012866;28;20428;-46
2022/06/22 09:57:07;;;;;;;6.20;5.70;;;;;;;19.03;77.51;101424.66;5012027;28;20579;-45
2022/06/22 10:00:01;;;;;;;10.90;5.47;;;;;;;19.07;77.29;101423.97;5013200;28;20436;-44
2022/06/22 10:02:50;;;;;;;5.23;4.70;;;;;;;19.67;76.16;101420.97;5012495;28;20479;-48
2022/06/22 10:05:58;;;;;;;6.43;5.43;;;;;;;19.97;75.15;101426.16;5013333;28;20489;-45
2022/06/22 10:08:46;;;;;;;6.70;5.30;;;;;;;20.39;71.95;101424.81;5013133;28;20523;-48
2022/06/22 10:11:24;;;;;;;6.37;5.73;;;;;;;20.98;69.35;101420.59;5012632;28;20451;-48
2022/06/22 10:14:18;;;;;;;5.80;5.40;;;;;;;21.75;67.78;101418.66;5012937;28;20870;-46
2022/06/22 10:17:12;;;;;;;6.57;5.50;;;;;;;22.29;62.08;101429.56;5012125;28;20479;-46
2022/06/22 10:19:55;;;;;;;5.73;5.33;;;;;;;22.15;60.06;101414.78;5012625;28;20428;-46
2022/06/22 10:22:40;;;;;;;5.60;5.20;;;;;;;22.05;61.03;101421.75;5012288;28;20476;-47
2022/06/22 10:25:32;;;;;;;4.60;4.20;;;;;;;21.88;61.23;101417.47;5012872;28;20434;-48
2022/06/22 10:28:36;;;;;;;5.03;4.73;;;;;;;22.20;60.06;101422.97;5012037;28;20468;-45
2022/06/22 10:31:14;;;;;;;6.27;4.90;;;;;;;22.00;60.36;101427.13;5012071;28;20434;-50
2022/06/22 10:34:14;;;;;;;5.40;5.20;;;;;;;21.45;62.34;101429.97;5001386;28;20869;-48
2022/06/22 10:37:13;;;;;;;5.10;4.80;;;;;;;21.40;63.52;101424.47;4979112;28;20467;-45
2022/06/22 10:40:07;;;;;;;5.00;4.70;;;;;;;21.39;62.84;101420.13;5012694;28;20429;-46
2022/06/22 10:45:49;;;;;;;5.83;5.43;;;;;;;22.44;61.87;101419.69;5011525;28;20814;-46
2022/06/22 10:48:43;;;;;;;5.43;5.10;;;;;;;22.59;59.18;101419.81;5011875;28;20468;-46
2022/06/22 10:51:21;;;;;;;5.20;4.90;;;;;;;22.64;59.01;101419.00;5012112;28;20435;-46
2022/06/22 10:54:33;;;;;;;6.70;6.10;;;;;;;22.83;58.27;101427.63;5012348;28;20428;-47
2022/06/22 10:57:26;;;;;;;5.33;5.13;;;;;;;22.94;56.96;101429.31;5011742;28;20496;-47
2022/06/22 11:00:09;;;;;;;5.60;5.40;;;;;;;22.95;59.16;101425.53;5011630;28;20436;-47
2022/06/22 11:03:09;;;;;;;5.20;5.00;;;;;;;23.06;58.37;101422.63;5011801;28;20472;-47
2022/06/22 11:05:54;;;;;;;5.30;4.80;;;;;;;22.86;59.00;101421.66;5004134;28;20471;-49
2022/06/22 11:08:40;;;;;;;5.73;5.33;;;;;;;22.63;58.71;101417.41;5011657;28;20444;-45
2022/06/22 11:11:22;;;;;;;5.13;4.93;;;;;;;22.58;60.28;101411.91;5011590;28;20455;-47
2022/06/22 11:14:14;;;;;;;5.93;5.30;;;;;;;22.67;59.49;101413.09;5011894;28;20428;-45
2022/06/22 11:16:58;;;;;;;4.90;4.60;;;;;;;22.92;59.25;101412.47;5010969;28;20491;-45
2022/06/22 11:19:59;;;;;;;4.47;4.27;;;;;;;23.00;57.45;101410.06;5011994;28;20479;-46
2022/06/22 11:22:35;;;;;;;4.57;4.37;;;;;;;23.05;58.11;101415.56;4971311;28;20472;-47
2022/06/22 11:31:43;;;;;;;6.13;5.80;;;;;;;22.57;56.99;101410.28;5007493;28;20935;-49
2022/06/22 11:34:31;;;;;;;5.50;5.20;;;;;;;22.27;59.33;101408.13;4993266;28;20484;-46
2022/06/22 11:37:09;;;;;;;8.60;4.93;;;;;;;22.08;61.15;101419.59;4991419;28;20469;-46
2022/06/22 11:40:22;;;;;;;5.23;5.03;;;;;;;22.25;60.29;101414.88;4991784;28;20473;-46
2022/06/22 11:43:00;;;;;;;5.53;5.23;;;;;;;22.08;59.77;101419.59;4991932;28;20469;-46
2022/06/22 11:45:51;;;;;;;5.30;4.97;;;;;;;22.00;59.52;101415.44;4991744;28;20614;-47
2022/06/22 11:48:33;;;;;;;5.50;5.20;;;;;;;22.26;61.02;101416.50;4991217;28;20472;-45
2022/06/22 11:51:09;;;;;;;6.27;5.67;;;;;;;22.76;59.08;101419.69;4991534;28;20440;-46
2022/06/22 11:54:01;;;;;;;5.43;5.03;;;;;;;22.86;57.39;101410.78;4991676;28;20464;-45
2022/06/22 11:56:46;;;;;;;5.30;4.80;;;;;;;23.30;56.95;101414.03;4992816;28;20465;-46
2022/06/22 11:59:33;;;;;;;5.27;5.07;;;;;;;23.56;57.26;101407.66;4995354;28;20436;-45
2022/06/22 12:02:24;;;;;;;5.17;4.87;;;;;;;23.57;54.77;101412.84;4995206;28;20568;-45
2022/06/22 12:05:11;;;;;;;5.87;5.33;;;;;;;23.48;55.97;101419.06;4995293;28;20429;-45
2022/06/22 12:08:04;;;;;;;5.60;5.30;;;;;;;23.50;56.24;101419.63;4994528;28;20473;-46
2022/06/22 12:10:46;;;;;;;5.00;4.77;;;;;;;23.79;56.29;101406.38;4994811;28;20773;-46
2022/06/22 12:13:27;;;;;;;5.40;5.10;;;;;;;23.87;53.73;101400.41;4995085;28;20891;-45
2022/06/22 12:16:09;;;;;;;4.60;4.40;;;;;;;23.82;52.57;101400.41;4994994;28;20818;-46
2022/06/22 12:18:52;;;;;;;5.33;4.93;;;;;;;23.15;55.67;101401.16;4994791;28;20453;-48
2022/06/22 12:21:37;;;;;;;6.03;5.13;;;;;;;23.24;56.23;101409.69;4994793;28;20455;-49
2022/06/22 12:24:11;;;;;;;4.80;4.50;;;;;;;23.36;56.92;101407.53;4994615;28;20434;-47
2022/06/22 12:26:52;;;;;;;5.10;4.60;;;;;;;22.47;57.20;101413.72;4994235;28;20804;-47
2022/06/22 12:29:40;;;;;;;5.00;4.70;;;;;;;22.72;57.07;101415.88;4994579;28;20430;-46